Terminal Aerodrome Forecast
Issued by NWS

Home | Current Version | Previous Version | Text Only | Print | Product List | Glossary On
Versions: 1 2 3 4 5 6 7 8 9 10 11 12 13 14 15 16 17 18
000
FTUS41 KOKX 271100
TAFTEB
TAF
KTEB 271132Z 2712/2812 VRB03KT P6SM BKN250
     FM271800 23005KT P6SM BKN250
     FM280200 22005KT P6SM FEW100 BKN250
     FM280900 VRB05KT P6SM BKN100 BKN250=

USA.gov is the U.S. government's official web portal to all federal, state and local government web resources and services.